Time;durP1;ratioP1;P1;durP2;ratioP2;P2;SDS_P1;SDS_P2;PMS_P1;PMS_P2;Temp;Humidity;BMP_temperature;BMP_pressure;BME280_temperature;BME280_humidity;BME280_pressure;Samples;Min_cycle;Max_cycle;Signal;HPM_P1;HPM_P2
2022/10/01 00:00:37;;;;;;;33.28;20.20;;;;;;;16.40;100.00;100218.94;1767406;80;21040;-64
2022/10/01 00:03:06;;;;;;;36.25;22.40;;;;;;;16.40;100.00;100213.41;1733345;80;21004;-65
2022/10/01 00:05:36;;;;;;;32.23;21.65;;;;;;;16.36;100.00;100212.20;1742028;80;21458;-65
2022/10/01 00:08:08;;;;;;;28.90;20.65;;;;;;;16.31;100.00;100212.08;1769635;80;21059;-65
2022/10/01 00:10:41;;;;;;;32.00;21.27;;;;;;;16.30;100.00;100212.32;1767392;81;21012;-65
2022/10/01 00:13:11;;;;;;;34.03;21.42;;;;;;;16.28;100.00;100208.95;1767414;80;21016;-67
2022/10/01 00:15:42;;;;;;;32.17;21.50;;;;;;;16.25;100.00;100206.64;1782695;80;20997;-65
2022/10/01 00:18:12;;;;;;;31.70;20.77;;;;;;;16.20;100.00;100207.90;1798606;80;21043;-64
2022/10/01 00:20:42;;;;;;;36.17;20.97;;;;;;;16.16;100.00;100203.39;1697979;82;21096;-64
2022/10/01 00:23:12;;;;;;;29.00;20.17;;;;;;;16.14;100.00;100215.22;1767292;81;21060;-66
2022/10/01 00:25:42;;;;;;;29.32;20.15;;;;;;;16.09;100.00;100209.03;1767279;81;21511;-64
2022/10/01 00:28:12;;;;;;;30.40;20.80;;;;;;;16.06;100.00;100219.72;1767272;81;21496;-66
2022/10/01 00:30:47;;;;;;;30.48;21.55;;;;;;;16.02;100.00;100206.08;1767492;81;21089;-64
2022/10/01 00:33:18;;;;;;;31.37;20.75;;;;;;;15.98;100.00;100220.07;1785463;80;20984;-65
2022/10/01 00:35:47;;;;;;;29.20;19.85;;;;;;;15.95;100.00;100210.33;1774694;80;21071;-65
2022/10/01 00:38:18;;;;;;;28.47;19.77;;;;;;;15.92;100.00;100205.82;1767283;81;21483;-66
2022/10/01 00:40:48;;;;;;;27.10;19.95;;;;;;;15.90;100.00;100200.53;1767551;81;21039;-64
2022/10/01 00:43:26;;;;;;;30.32;20.65;;;;;;;15.88;100.00;100205.99;1768514;81;21055;-66
2022/10/01 00:46:00;;;;;;;29.95;20.52;;;;;;;15.86;100.00;100204.84;1774538;81;21055;-65
2022/10/01 00:48:30;;;;;;;33.40;20.17;;;;;;;15.81;100.00;100207.48;1795321;79;20987;-65
2022/10/01 00:50:59;;;;;;;27.15;18.85;;;;;;;15.78;100.00;100208.80;1717363;82;21068;-65
2022/10/01 00:53:30;;;;;;;30.08;20.02;;;;;;;15.74;100.00;100211.73;1806348;79;21462;-64
2022/10/01 00:56:01;;;;;;;33.55;21.02;;;;;;;15.71;100.00;100206.67;1782434;79;20997;-65
2022/10/01 00:58:31;;;;;;;31.55;20.17;;;;;;;15.68;100.00;100214.59;1752967;81;21492;-65
2022/10/01 01:01:01;;;;;;;32.63;20.12;;;;;;;15.65;100.00;100209.00;1774445;81;21035;-65
2022/10/01 01:03:31;;;;;;;30.45;19.60;;;;;;;15.61;100.00;100204.19;1774689;81;21517;-65
2022/10/01 01:06:02;;;;;;;30.85;19.55;;;;;;;15.58;100.00;100206.00;1774243;81;21119;-64
2022/10/01 01:08:33;;;;;;;27.00;19.40;;;;;;;15.58;100.00;100207.38;1774582;81;21016;-64
2022/10/01 01:11:11;;;;;;;29.35;19.52;;;;;;;15.57;100.00;100205.67;1774309;81;21047;-64
2022/10/01 01:14:08;;;;;;;32.28;20.37;;;;;;;15.54;100.00;100205.06;1774454;79;21007;-66
2022/10/01 01:16:48;;;;;;;28.17;19.15;;;;;;;15.50;100.00;100201.09;1772139;79;20980;-66
2022/10/01 01:19:44;;;;;;;30.75;19.48;;;;;;;15.43;100.00;100204.48;1774430;79;21012;-64
2022/10/01 01:22:13;;;;;;;30.43;20.23;;;;;;;15.39;100.00;100203.27;1773625;80;21071;-65
2022/10/01 01:24:51;;;;;;;30.30;21.10;;;;;;;15.37;100.00;100201.28;1774392;81;21079;-64
2022/10/01 01:27:40;;;;;;;33.67;21.25;;;;;;;15.36;100.00;100195.98;1774568;80;20976;-66
2022/10/01 01:30:14;;;;;;;33.13;20.50;;;;;;;15.32;100.00;100202.52;1774374;81;21015;-64
2022/10/01 01:33:02;;;;;;;28.90;19.42;;;;;;;15.29;100.00;100193.86;1774407;81;21086;-64
2022/10/01 01:35:36;;;;;;;30.20;19.37;;;;;;;15.28;100.00;100198.54;1771510;79;20995;-66
2022/10/01 01:38:10;;;;;;;30.88;20.25;;;;;;;15.28;100.00;100202.68;1774577;81;21088;-66
2022/10/01 01:40:40;;;;;;;29.27;19.62;;;;;;;15.26;100.00;100210.89;1774305;81;21090;-64
2022/10/01 01:43:14;;;;;;;30.30;19.17;;;;;;;15.21;100.00;100209.67;1774509;81;21016;-66
2022/10/01 01:45:43;;;;;;;32.00;18.52;;;;;;;15.16;100.00;100208.14;1774357;81;21055;-64
2022/10/01 01:48:13;;;;;;;32.73;18.98;;;;;;;15.14;100.00;100207.53;1774262;80;21106;-65
2022/10/01 01:50:53;;;;;;;26.35;18.48;;;;;;;15.12;100.00;100209.69;1774283;80;21019;-65
2022/10/01 01:53:25;;;;;;;26.12;18.62;;;;;;;15.10;100.00;100203.56;1774424;81;21012;-66
2022/10/01 01:55:55;;;;;;;27.70;18.62;;;;;;;15.06;100.00;100212.53;1774384;81;21019;-65
2022/10/01 01:58:26;;;;;;;27.05;18.57;;;;;;;15.04;100.00;100211.92;1774318;80;21051;-64
2022/10/01 02:00:56;;;;;;;27.77;18.48;;;;;;;15.01;100.00;100211.00;1774273;81;21513;-65
2022/10/01 02:03:28;;;;;;;28.23;19.48;;;;;;;14.98;100.00;100215.60;1774355;81;21075;-65
2022/10/01 02:06:11;;;;;;;28.30;20.35;;;;;;;14.94;100.00;100208.30;1775196;79;21087;-65
2022/10/01 02:08:52;;;;;;;27.48;19.40;;;;;;;14.91;100.00;100211.52;1750333;81;21043;-64
2022/10/01 02:11:30;;;;;;;27.80;18.48;;;;;;;14.88;100.00;100205.92;1774198;81;21416;-65
2022/10/01 02:14:27;;;;;;;26.65;17.92;;;;;;;14.87;100.00;100218.03;1774480;81;21035;-65
2022/10/01 02:17:02;;;;;;;25.02;18.12;;;;;;;14.86;100.00;100216.34;1775057;79;21039;-65
2022/10/01 02:20:02;;;;;;;28.35;19.52;;;;;;;14.82;100.00;100219.26;1776629;79;21469;-65
2022/10/01 02:22:43;;;;;;;29.20;19.12;;;;;;;14.79;100.00;100219.72;1644866;87;21120;-65
2022/10/01 02:25:13;;;;;;;28.10;18.55;;;;;;;14.76;100.00;100215.20;1758379;81;21020;-64
2022/10/01 02:27:57;;;;;;;24.27;17.98;;;;;;;14.70;100.00;100216.95;1781893;79;21011;-65
2022/10/01 02:30:29;;;;;;;24.98;18.27;;;;;;;14.68;100.00;100214.97;1774482;80;21043;-65
2022/10/01 02:33:00;;;;;;;26.37;18.48;;;;;;;14.64;100.00;100222.55;1774313;81;21426;-65
2022/10/01 02:35:30;;;;;;;25.90;17.92;;;;;;;14.59;100.00;100221.32;1775012;79;21011;-64
2022/10/01 02:38:01;;;;;;;24.55;17.82;;;;;;;14.58;100.00;100221.55;1774312;81;21083;-65
2022/10/01 02:40:32;;;;;;;27.07;18.20;;;;;;;14.58;100.00;100220.17;1774458;81;21004;-64
2022/10/01 02:43:16;;;;;;;23.62;17.27;;;;;;;14.58;100.00;100214.12;1787391;79;21035;-65
2022/10/01 02:45:50;;;;;;;24.85;17.52;;;;;;;14.58;100.00;100219.63;1805724;79;21099;-64
2022/10/01 02:48:19;;;;;;;25.30;17.60;;;;;;;14.59;100.00;100227.37;1806033;79;21071;-64
2022/10/01 02:50:51;;;;;;;26.15;17.92;;;;;;;14.55;100.00;100224.22;1794414;79;21016;-65
2022/10/01 02:53:34;;;;;;;24.25;16.85;;;;;;;14.49;100.00;100215.48;1774264;81;21083;-64
2022/10/01 02:56:04;;;;;;;23.05;16.15;;;;;;;14.45;100.00;100213.41;1774929;79;21104;-65
2022/10/01 02:58:35;;;;;;;23.30;16.02;;;;;;;14.42;100.00;100211.08;1774404;81;21027;-64
2022/10/01 03:01:05;;;;;;;24.25;17.40;;;;;;;14.40;100.00;100209.09;1774434;81;21016;-65
2022/10/01 03:03:35;;;;;;;20.82;15.53;;;;;;;14.36;100.00;100210.08;1774324;81;21036;-64
2022/10/01 03:06:05;;;;;;;22.10;15.25;;;;;;;14.36;100.00;100211.45;1774384;81;21428;-65
2022/10/01 03:08:34;;;;;;;22.30;15.10;;;;;;;14.34;100.00;100207.23;1774609;81;21470;-64
2022/10/01 03:11:07;;;;;;;21.55;15.43;;;;;;;14.32;100.00;100208.84;1774363;81;21079;-64
2022/10/01 03:13:36;;;;;;;23.45;15.32;;;;;;;14.33;100.00;100218.80;1774407;81;21490;-66
2022/10/01 03:16:06;;;;;;;20.92;15.28;;;;;;;14.31;100.00;100223.70;1774410;81;21063;-64
2022/10/01 03:18:38;;;;;;;22.50;15.50;;;;;;;14.27;100.00;100224.65;1774595;80;21020;-66
2022/10/01 03:21:09;;;;;;;18.87;13.65;;;;;;;14.24;100.00;100229.23;1774252;79;21056;-65
2022/10/01 03:23:39;;;;;;;20.15;13.53;;;;;;;14.22;100.00;100237.42;1774323;81;21469;-65
2022/10/01 03:26:10;;;;;;;17.80;12.53;;;;;;;14.21;100.00;100239.87;1774325;81;20992;-65
2022/10/01 03:28:38;;;;;;;14.45;9.65;;;;;;;14.21;100.00;100243.47;1775170;81;21028;-65
2022/10/01 03:31:09;;;;;;;12.50;7.97;;;;;;;14.23;100.00;100235.81;1777754;81;21063;-64
2022/10/01 03:33:40;;;;;;;10.60;6.58;;;;;;;14.30;100.00;100233.00;1776722;80;21063;-65
2022/10/01 03:36:09;;;;;;;9.15;5.80;;;;;;;14.37;100.00;100231.59;1774477;81;21004;-65
2022/10/01 03:38:39;;;;;;;10.18;5.85;;;;;;;14.44;100.00;100224.98;1774519;81;21090;-64
2022/10/01 03:41:09;;;;;;;9.23;5.83;;;;;;;14.50;100.00;100220.47;1774315;81;21039;-65
2022/10/01 03:43:39;;;;;;;8.95;5.90;;;;;;;14.55;100.00;100224.76;1774949;79;21016;-64
2022/10/01 03:46:08;;;;;;;10.38;5.83;;;;;;;14.58;100.00;100227.06;1782313;80;21028;-65
2022/10/01 03:48:37;;;;;;;11.90;6.17;;;;;;;14.61;100.00;100229.36;1782718;80;20996;-66
2022/10/01 03:51:09;;;;;;;11.10;5.58;;;;;;;14.63;100.00;100233.27;1782456;79;21067;-64
2022/10/01 03:53:38;;;;;;;8.65;5.87;;;;;;;14.63;100.00;100235.49;1782573;80;21479;-66
2022/10/01 03:56:07;;;;;;;8.73;5.80;;;;;;;14.64;100.00;100244.08;1782592;80;21043;-65
2022/10/01 03:58:39;;;;;;;9.88;5.75;;;;;;;14.65;100.00;100239.41;1782621;80;21071;-65
2022/10/01 04:01:08;;;;;;;6.97;5.47;;;;;;;14.64;99.78;100239.94;1782595;80;21015;-65
2022/10/01 04:03:38;;;;;;;8.93;5.33;;;;;;;14.63;99.64;100236.03;1782538;80;21051;-66
2022/10/01 04:06:07;;;;;;;9.83;5.70;;;;;;;14.64;99.43;100238.56;1782611;80;21031;-64
2022/10/01 04:08:37;;;;;;;9.25;5.60;;;;;;;14.65;99.19;100236.64;1782670;80;21444;-66
2022/10/01 04:11:07;;;;;;;10.68;5.72;;;;;;;14.66;99.00;100239.70;1782491;79;21439;-65
2022/10/01 04:13:36;;;;;;;9.13;5.87;;;;;;;14.68;98.77;100236.19;1782628;80;21019;-64
2022/10/01 04:16:06;;;;;;;7.72;5.90;;;;;;;14.67;98.61;100247.75;1782791;80;21082;-65
2022/10/01 04:18:38;;;;;;;10.90;5.50;;;;;;;14.70;98.53;100246.45;1782793;80;21011;-65
2022/10/01 04:21:08;;;;;;;11.03;5.67;;;;;;;14.70;98.30;100241.78;1782711;79;20995;-67
2022/10/01 04:23:37;;;;;;;7.90;5.10;;;;;;;14.71;98.08;100242.62;1784747;79;21007;-65
2022/10/01 04:26:07;;;;;;;9.73;5.30;;;;;;;14.72;97.99;100244.31;1800526;79;21043;-67
2022/10/01 04:28:37;;;;;;;9.38;5.92;;;;;;;14.73;97.92;100239.94;1782779;80;21070;-65
2022/10/01 04:31:26;;;;;;;11.20;6.03;;;;;;;14.77;97.77;100244.47;1782721;79;21000;-66
2022/10/01 04:33:57;;;;;;;9.95;5.53;;;;;;;14.80;97.64;100245.38;1782573;80;21003;-65
2022/10/01 04:36:26;;;;;;;7.33;5.15;;;;;;;14.81;97.47;100249.83;1782674;80;21494;-65
2022/10/01 04:38:56;;;;;;;9.60;5.78;;;;;;;14.81;97.49;100254.81;1782830;80;21035;-64
2022/10/01 04:41:29;;;;;;;10.85;6.45;;;;;;;14.83;97.33;100254.58;1782274;80;21086;-64
2022/10/01 04:43:59;;;;;;;9.15;5.78;;;;;;;14.86;97.29;100243.09;1782415;80;21047;-65
2022/10/01 04:46:29;;;;;;;9.80;6.12;;;;;;;14.88;97.22;100250.06;1787984;80;21472;-65
2022/10/01 04:48:59;;;;;;;10.00;5.95;;;;;;;14.90;97.08;100253.44;1787253;79;21016;-63
2022/10/01 04:51:30;;;;;;;8.53;5.47;;;;;;;14.94;96.85;100257.95;1767301;81;21059;-65
2022/10/01 04:54:01;;;;;;;9.80;6.08;;;;;;;14.98;96.65;100251.48;1767129;81;21009;-64
2022/10/01 04:56:30;;;;;;;9.68;6.25;;;;;;;14.99;96.52;100255.92;1767313;81;21440;-65
2022/10/01 04:59:00;;;;;;;7.67;5.53;;;;;;;15.01;96.47;100256.53;1767438;81;21035;-65
2022/10/01 05:01:31;;;;;;;9.43;5.15;;;;;;;15.02;96.29;100270.63;1767203;81;20996;-65
2022/10/01 05:04:02;;;;;;;8.00;5.55;;;;;;;15.02;96.15;100270.63;1775991;80;21008;-66
2022/10/01 05:06:31;;;;;;;11.83;7.30;;;;;;;15.03;96.05;100274.55;1787961;79;21448;-64
2022/10/01 05:09:01;;;;;;;9.75;5.87;;;;;;;15.04;95.91;100276.77;1781115;80;20976;-65
2022/10/01 05:11:31;;;;;;;8.63;6.15;;;;;;;15.02;95.90;100282.52;1767539;81;21063;-66
2022/10/01 05:14:01;;;;;;;10.88;6.17;;;;;;;15.03;95.82;100280.59;1767294;81;21012;-64
2022/10/01 05:16:32;;;;;;;7.97;5.45;;;;;;;15.05;95.73;100279.83;1790895;80;21039;-65
2022/10/01 05:19:02;;;;;;;8.18;5.85;;;;;;;15.06;95.60;100284.28;1718246;82;21092;-66
2022/10/01 05:21:31;;;;;;;8.78;5.92;;;;;;;15.08;95.53;100275.23;1798411;80;20994;-64
2022/10/01 05:24:01;;;;;;;7.08;5.12;;;;;;;15.10;95.40;100278.06;1767487;81;21468;-66
2022/10/01 05:26:30;;;;;;;8.03;5.55;;;;;;;15.12;95.26;100278.68;1718510;82;21040;-66
2022/10/01 05:29:01;;;;;;;9.40;5.53;;;;;;;15.16;95.09;100283.20;1767354;80;21495;-65
2022/10/01 05:31:31;;;;;;;10.45;5.60;;;;;;;15.18;94.95;100289.34;1689524;85;21482;-64
2022/10/01 05:34:02;;;;;;;8.25;5.45;;;;;;;15.19;94.75;100278.59;1767704;81;21087;-65
2022/10/01 05:36:33;;;;;;;10.45;6.50;;;;;;;15.20;94.63;100283.05;1767982;80;21071;-65
2022/10/01 05:39:05;;;;;;;7.85;5.20;;;;;;;15.22;94.57;100280.90;1767556;81;21036;-65
2022/10/01 05:41:35;;;;;;;10.65;6.40;;;;;;;15.25;94.59;100285.11;1777425;80;21027;-65
2022/10/01 05:44:05;;;;;;;7.20;5.75;;;;;;;15.27;94.48;100289.33;1788040;80;21507;-64
2022/10/01 05:46:35;;;;;;;9.18;5.55;;;;;;;15.30;94.47;100281.13;1787915;80;21035;-65
2022/10/01 05:49:06;;;;;;;9.45;5.50;;;;;;;15.30;94.37;100276.44;1788120;80;21138;-65
2022/10/01 05:51:36;;;;;;;8.98;5.67;;;;;;;15.33;94.35;100278.73;1788380;80;21047;-65
2022/10/01 05:54:07;;;;;;;10.13;5.08;;;;;;;15.38;94.23;100277.51;1788309;80;21011;-64
2022/10/01 05:56:38;;;;;;;8.18;5.53;;;;;;;15.41;94.20;100282.56;1788081;79;21075;-65
2022/10/01 05:59:08;;;;;;;7.67;5.55;;;;;;;15.48;94.25;100279.72;1788076;80;21031;-64
2022/10/01 06:01:38;;;;;;;10.08;6.20;;;;;;;15.53;94.15;100270.19;1788905;79;21019;-65
2022/10/01 06:04:09;;;;;;;10.93;5.58;;;;;;;15.59;93.91;100272.59;1788042;80;21015;-65
2022/10/01 06:06:40;;;;;;;8.50;4.90;;;;;;;15.64;93.70;100263.09;1788250;80;21011;-66
2022/10/01 06:09:11;;;;;;;10.10;5.40;;;;;;;15.67;93.38;100273.67;1787912;80;21067;-65
2022/10/01 06:11:41;;;;;;;8.65;6.00;;;;;;;15.70;93.02;100273.20;1788040;80;21464;-66
2022/10/01 06:14:10;;;;;;;8.80;5.45;;;;;;;15.70;92.76;100275.43;1787839;80;20987;-66
2022/10/01 06:16:41;;;;;;;8.85;5.72;;;;;;;15.74;92.59;100277.19;1788278;79;21045;-66
2022/10/01 06:19:11;;;;;;;9.00;5.17;;;;;;;15.77;92.20;100272.57;1788087;80;21051;-66
2022/10/01 06:21:40;;;;;;;7.75;4.97;;;;;;;15.78;91.99;100273.72;1788019;80;21491;-65
2022/10/01 06:24:09;;;;;;;9.45;5.50;;;;;;;15.81;91.79;100277.39;1787983;80;21007;-65
2022/10/01 06:26:39;;;;;;;8.90;5.12;;;;;;;15.83;91.58;100278.00;1788184;80;21023;-65
2022/10/01 06:29:09;;;;;;;7.22;4.75;;;;;;;15.87;91.40;100280.30;1791748;79;21038;-64
2022/10/01 06:31:39;;;;;;;10.28;5.33;;;;;;;15.91;91.11;100283.73;1750548;82;21019;-65
2022/10/01 06:34:10;;;;;;;8.80;5.55;;;;;;;15.94;90.96;100283.26;1751003;82;21183;-65
2022/10/01 06:36:40;;;;;;;8.23;5.40;;;;;;;15.99;90.71;100290.30;1727703;82;21433;-67
2022/10/01 06:39:13;;;;;;;9.15;5.78;;;;;;;16.03;90.34;100290.67;1723917;82;21043;-66
2022/10/01 06:41:42;;;;;;;12.47;5.50;;;;;;;16.05;89.83;100287.13;1742371;82;21091;-65
2022/10/01 06:44:13;;;;;;;13.38;5.55;;;;;;;16.07;89.46;100293.27;1721383;83;21111;-64
2022/10/01 06:46:43;;;;;;;10.70;5.20;;;;;;;16.10;89.26;100288.11;1710381;83;21506;-65
2022/10/01 10:50:49;;;;;;;3.37;1.20;;;;;;;20.78;57.07;100234.97;1852304;77;28469;-67
2022/10/01 10:53:25;;;;;;;1.62;1.10;;;;;;;20.78;56.66;100232.19;1782782;79;21145;-69
2022/10/01 10:56:05;;;;;;;3.30;1.35;;;;;;;20.79;56.51;100227.75;1796407;79;21539;-68
2022/10/01 10:58:44;;;;;;;2.52;1.60;;;;;;;20.80;56.77;100231.37;1789632;80;21163;-70
2022/10/01 11:01:19;;;;;;;3.42;1.50;;;;;;;20.82;56.50;100229.19;1799577;80;21110;-68
2022/10/01 11:03:54;;;;;;;2.63;1.40;;;;;;;20.82;56.83;100230.02;1766868;80;21190;-69
2022/10/01 11:06:25;;;;;;;2.60;1.20;;;;;;;20.82;56.70;100226.40;1800358;79;21118;-68
2022/10/01 11:09:00;;;;;;;3.80;1.42;;;;;;;20.78;56.79;100222.45;1799541;80;21081;-69
2022/10/01 11:11:44;;;;;;;4.15;1.40;;;;;;;20.75;56.97;100229.39;1799561;80;21105;-70
2022/10/01 11:15:08;;;;;;;6.05;1.57;;;;;;;20.73;56.86;100224.64;1799329;80;21106;-69
2022/10/01 11:17:57;;;;;;;1.60;1.27;;;;;;;20.72;56.91;100227.14;1799352;80;21090;-69
2022/10/01 11:21:04;;;;;;;2.75;1.50;;;;;;;20.70;56.83;100225.19;1800318;80;21117;-74
2022/10/01 11:23:44;;;;;;;4.33;1.50;;;;;;;20.69;56.95;100224.06;1799870;79;21187;-68
2022/10/01 11:26:42;;;;;;;2.10;1.40;;;;;;;20.68;56.87;100212.08;1800168;80;21129;-67
2022/10/01 11:29:42;;;;;;;3.67;1.40;;;;;;;20.66;57.00;100205.95;1800057;79;21164;-66
2022/10/01 11:32:23;;;;;;;3.10;1.30;;;;;;;20.64;57.25;100205.94;1800011;80;21122;-69
2022/10/01 11:35:13;;;;;;;4.25;1.77;;;;;;;20.62;57.23;100209.53;1799698;80;21152;-67
2022/10/01 11:38:07;;;;;;;3.12;1.60;;;;;;;20.56;57.43;100203.94;1801846;79;21116;-65
2022/10/01 11:40:42;;;;;;;1.87;1.32;;;;;;;20.55;57.57;100200.03;1779851;79;21143;-65
2022/10/01 11:43:28;;;;;;;3.40;1.42;;;;;;;20.51;57.72;100194.71;1766721;80;21124;-68
2022/10/01 11:46:06;;;;;;;4.22;1.82;;;;;;;20.45;57.52;100191.06;1762837;80;21235;-67
2022/10/01 11:48:47;;;;;;;2.92;1.20;;;;;;;20.39;57.71;100191.26;1766737;80;21108;-66
2022/10/01 11:51:24;;;;;;;4.22;1.30;;;;;;;20.34;57.86;100192.62;1766339;81;21124;-66
2022/10/01 11:54:01;;;;;;;4.05;1.65;;;;;;;20.29;58.03;100192.02;1759724;81;21239;-66
2022/10/01 11:59:31;;;;;;;2.92;1.20;;;;;;;20.22;58.18;100183.06;1737399;82;20153;-66
2022/10/01 12:02:32;;;;;;;1.45;1.30;;;;;;;20.19;58.34;100173.31;1793924;80;21114;-67
2022/10/01 12:05:18;;;;;;;3.37;1.50;;;;;;;20.17;58.55;100174.68;1824502;78;21521;-68
2022/10/01 12:08:08;;;;;;;;;;;;;;;20.14;58.65;100173.80;1826876;79;21118;-67
2022/10/01 12:11:06;;;;;;;7.45;2.30;;;;;;;20.12;58.89;100174.61;1824615;78;20149;-67
2022/10/01 12:13:53;;;;;;;4.62;2.20;;;;;;;20.11;59.21;100172.94;1824048;79;21157;-68
2022/10/01 12:16:34;;;;;;;7.05;1.67;;;;;;;20.08;59.57;100169.30;1786762;80;21163;-67
2022/10/01 12:19:16;;;;;;;2.52;1.70;;;;;;;20.05;59.73;100165.10;1772540;80;21108;-69
2022/10/01 12:21:56;;;;;;;6.33;1.90;;;;;;;20.03;59.89;100162.30;1771581;81;21673;-66
2022/10/01 12:24:37;;;;;;;2.42;1.82;;;;;;;20.00;60.21;100168.39;1771751;81;21155;-70
2022/10/01 12:27:25;;;;;;;4.12;1.80;;;;;;;19.99;60.48;100175.90;1821918;78;21115;-66
2022/10/01 12:30:19;;;;;;;10.58;2.00;;;;;;;19.97;60.75;100171.16;1827941;78;21143;-68
2022/10/01 12:33:07;;;;;;;3.55;1.95;;;;;;;19.95;61.03;100170.03;1824056;78;21643;-67
2022/10/01 12:35:55;;;;;;;;;;;;;;;19.93;61.03;100161.11;1817101;79;21107;-68
2022/10/01 12:38:56;;;;;;;4.28;2.22;;;;;;;19.92;60.97;100158.05;1814320;78;20208;-66
2022/10/01 12:42:08;;;;;;;4.00;1.85;;;;;;;19.91;61.06;100160.54;1814727;79;21538;-65
2022/10/01 12:45:16;;;;;;;4.35;1.98;;;;;;;19.89;61.19;100157.19;1760274;79;21590;-69
2022/10/01 12:48:19;;;;;;;4.50;2.05;;;;;;;19.86;61.35;100157.72;1760559;80;21583;-69
2022/10/01 12:50:57;;;;;;;6.90;2.10;;;;;;;19.85;62.08;100156.04;1782733;80;21220;-67
2022/10/01 12:53:47;;;;;;;5.97;2.30;;;;;;;19.84;62.31;100147.41;1798548;79;21113;-68
2022/10/01 12:56:35;;;;;;;6.47;2.10;;;;;;;19.85;63.02;100137.12;1801076;79;21162;-68
2022/10/01 12:59:36;;;;;;;4.90;2.08;;;;;;;19.86;62.63;100134.63;1817034;78;21172;-67
2022/10/01 13:02:38;;;;;;;7.47;2.58;;;;;;;19.87;62.69;100139.92;1830403;78;21132;-67
2022/10/01 13:05:37;;;;;;;5.95;2.37;;;;;;;19.88;62.66;100128.25;1820743;78;21141;-67
2022/10/01 13:08:29;;;;;;;4.37;2.90;;;;;;;19.90;62.92;100131.05;1830559;78;21117;-66
2022/10/01 13:11:07;;;;;;;5.85;2.52;;;;;;;19.89;62.93;100126.59;1792509;78;21102;-67
2022/10/01 13:13:37;;;;;;;8.60;2.35;;;;;;;19.87;63.16;100123.24;1793632;80;21140;-67
2022/10/01 13:16:36;;;;;;;3.47;2.35;;;;;;;19.87;63.30;100123.24;1797876;80;21546;-67
2022/10/01 13:19:38;;;;;;;3.20;2.50;;;;;;;19.85;63.12;100119.89;1797671;80;21137;-66
2022/10/01 13:22:42;;;;;;;4.12;2.45;;;;;;;19.81;63.65;100114.58;1836656;78;21111;-67
2022/10/01 13:25:32;;;;;;;6.08;2.67;;;;;;;19.79;63.82;100116.78;1836614;78;21146;-69
2022/10/01 13:28:22;;;;;;;5.60;2.58;;;;;;;19.79;63.66;100112.61;1836724;78;21154;-67
2022/10/01 13:31:01;;;;;;;4.47;2.47;;;;;;;19.76;64.15;100111.75;1835989;78;21145;-67
2022/10/01 13:33:33;;;;;;;5.28;2.60;;;;;;;19.77;64.24;100101.47;1836308;78;21803;-67
2022/10/01 13:36:04;;;;;;;8.83;2.58;;;;;;;19.76;64.60;100102.02;1836210;78;21078;-66
2022/10/01 13:38:47;;;;;;;7.75;2.70;;;;;;;19.75;65.07;100101.73;1836474;78;22236;-67
2022/10/01 13:41:34;;;;;;;7.67;3.00;;;;;;;19.74;65.10;100104.78;1836965;77;21160;-66
2022/10/01 13:44:25;;;;;;;8.08;3.60;;;;;;;19.73;64.90;100101.72;1832633;77;21099;-65
2022/10/01 13:47:05;;;;;;;7.03;3.15;;;;;;;19.69;65.51;100097.23;1817240;78;21146;-65
2022/10/01 13:49:37;;;;;;;6.78;3.87;;;;;;;19.66;65.54;100091.37;1807840;79;21146;-66
2022/10/01 13:52:07;;;;;;;13.05;5.30;;;;;;;19.64;65.31;100090.25;1827773;78;21258;-66
2022/10/01 13:54:49;;;;;;;8.68;3.92;;;;;;;19.62;65.20;100089.67;1796457;78;21151;-66
2022/10/01 13:57:30;;;;;;;6.58;3.77;;;;;;;19.60;65.15;100091.87;1795216;80;21106;-67
2022/10/01 14:00:13;;;;;;;10.95;3.60;;;;;;;19.58;65.08;100095.47;1817130;78;21151;-67
2022/10/01 14:03:06;;;;;;;7.08;3.22;;;;;;;19.54;65.17;100091.55;1827533;78;21083;-66
2022/10/01 14:05:39;;;;;;;9.33;3.80;;;;;;;19.51;65.23;100090.66;1827411;78;21126;-67
2022/10/01 14:08:48;;;;;;;9.78;4.03;;;;;;;19.48;65.34;100086.98;1827250;78;21162;-68
2022/10/01 14:17:31;;;;;;;5.22;3.00;;;;;;;19.39;65.36;100089.95;1776370;79;21547;-68
2022/10/01 14:20:01;;;;;;;4.90;3.33;;;;;;;19.35;65.14;100078.53;1830712;78;21559;-71
2022/10/01 14:22:55;;;;;;;6.72;3.55;;;;;;;19.32;65.67;100072.95;1830590;77;21112;-67
2022/10/01 14:25:49;;;;;;;9.50;3.40;;;;;;;19.29;66.03;100076.25;1830840;77;21530;-68
2022/10/01 14:28:34;;;;;;;10.53;3.72;;;;;;;19.26;66.32;100077.33;1830686;77;21135;-67
2022/10/01 14:31:25;;;;;;;7.12;3.15;;;;;;;19.23;66.60;100080.08;1830623;78;21124;-67
2022/10/01 14:34:41;;;;;;;6.40;4.20;;;;;;;19.21;66.68;100087.84;1802273;78;21103;-67
2022/10/01 14:37:16;;;;;;;9.08;4.97;;;;;;;19.20;67.08;100088.94;1823980;79;21352;-67
2022/10/01 14:39:46;;;;;;;9.78;5.17;;;;;;;19.17;67.73;100083.07;1823980;79;21110;-68
2022/10/01 14:42:17;;;;;;;8.43;3.67;;;;;;;19.14;68.08;100082.20;1792373;78;21106;-67
2022/10/01 14:44:47;;;;;;;10.18;3.60;;;;;;;19.12;68.09;100083.02;1792890;79;21136;-69
2022/10/01 14:47:24;;;;;;;9.63;4.00;;;;;;;19.08;68.10;100066.03;1825463;78;21105;-67
2022/10/01 14:49:56;;;;;;;8.63;3.33;;;;;;;19.07;68.31;100072.69;1796155;78;21125;-68
2022/10/01 14:52:28;;;;;;;11.80;4.50;;;;;;;19.04;68.26;100070.44;1825138;78;21188;-67
2022/10/01 14:55:06;;;;;;;13.03;4.72;;;;;;;18.99;68.58;100074.00;1821906;78;21164;-67
2022/10/01 14:57:42;;;;;;;11.05;3.87;;;;;;;18.98;68.79;100072.88;1777833;80;21145;-65
2022/10/01 15:00:22;;;;;;;9.53;4.15;;;;;;;18.96;69.36;100073.69;1798323;80;21125;-65
2022/10/01 15:02:54;;;;;;;11.83;7.60;;;;;;;18.95;69.83;100077.56;1798716;80;21237;-66
2022/10/01 15:05:31;;;;;;;14.93;5.83;;;;;;;18.92;69.87;100076.14;1798777;80;21149;-65
2022/10/01 15:08:22;;;;;;;12.13;5.62;;;;;;;18.89;70.24;100064.72;1798606;80;21122;-65
2022/10/01 15:10:56;;;;;;;10.28;5.20;;;;;;;18.83;70.57;100063.80;1798468;80;21136;-64
2022/10/01 15:13:30;;;;;;;8.30;4.85;;;;;;;18.83;70.46;100062.95;1798625;80;21831;-65
2022/10/01 15:16:00;;;;;;;7.35;4.65;;;;;;;18.82;70.22;100050.17;1798481;80;21133;-66
2022/10/01 15:18:31;;;;;;;12.85;5.92;;;;;;;18.79;70.19;100056.25;1766576;80;21161;-64
2022/10/01 15:21:05;;;;;;;10.60;5.30;;;;;;;18.79;70.00;100063.19;1798550;80;21125;-66
2022/10/01 15:23:35;;;;;;;9.33;4.87;;;;;;;18.77;70.06;100052.89;1798542;80;21193;-64
2022/10/01 15:26:10;;;;;;;9.43;4.83;;;;;;;18.75;70.41;100055.92;1768806;80;21118;-64
2022/10/01 15:28:40;;;;;;;10.40;5.22;;;;;;;18.72;70.91;100050.89;1798981;79;21160;-65
2022/10/01 15:31:10;;;;;;;10.13;5.75;;;;;;;18.71;71.29;100055.31;1798643;80;21650;-65
2022/10/01 15:33:40;;;;;;;12.65;6.00;;;;;;;18.68;71.31;100053.36;1798862;80;21141;-64
2022/10/01 15:36:18;;;;;;;10.60;5.70;;;;;;;18.65;71.44;100047.48;1798681;80;21635;-64
2022/10/01 15:38:49;;;;;;;14.03;5.92;;;;;;;18.63;71.73;100043.58;1768374;80;21584;-65
2022/10/01 15:41:26;;;;;;;10.63;5.03;;;;;;;18.59;71.81;100035.45;1798867;80;21129;-66
2022/10/01 15:44:04;;;;;;;9.30;4.30;;;;;;;18.55;71.88;100031.52;1796305;80;21176;-65
2022/10/01 15:46:34;;;;;;;9.40;3.77;;;;;;;18.49;72.44;100027.00;1820168;79;21127;-63
2022/10/01 15:49:20;;;;;;;5.95;4.00;;;;;;;18.44;73.09;100020.00;1820162;79;21185;-65
2022/10/01 15:54:47;;;;;;;5.87;3.95;;;;;;;18.34;73.92;100020.72;1798661;79;21082;-65
2022/10/01 15:57:21;;;;;;;13.85;4.90;;;;;;;18.31;74.32;100019.01;1798843;78;21106;-65
2022/10/01 15:59:53;;;;;;;7.53;4.05;;;;;;;18.27;74.75;100008.14;1798514;80;21129;-64
2022/10/01 16:02:25;;;;;;;6.30;3.87;;;;;;;18.24;75.24;100012.81;1798614;78;21149;-64
2022/10/01 16:05:04;;;;;;;16.07;4.90;;;;;;;18.20;75.66;100011.08;1800660;79;21106;-65
2022/10/01 16:07:36;;;;;;;8.75;3.92;;;;;;;18.17;76.08;100013.52;1775467;79;21654;-65
2022/10/01 16:10:31;;;;;;;7.75;4.20;;;;;;;18.13;76.55;100010.98;1774037;80;21153;-64
2022/10/01 16:13:27;;;;;;;7.83;4.20;;;;;;;18.11;76.88;100014.55;1773930;80;21622;-64